Time;durP1;ratioP1;P1;durP2;ratioP2;P2;SDS_P1;SDS_P2;PMS_P1;PMS_P2;Temp;Humidity;BMP_temperature;BMP_pressure;BME280_temperature;BME280_humidity;BME280_pressure;Samples;Min_cycle;Max_cycle;Signal;HPM_P1;HPM_P2
2022/04/25 00:01:04;;;;;;;17.77;8.98;;;9.50;99.90;;;;;;5002120;28;20068;-60
2022/04/25 00:03:29;;;;;;;17.73;8.10;;;9.50;99.90;;;;;;4984709;28;20068;-59
2022/04/25 00:05:55;;;;;;;13.85;8.38;;;9.40;99.90;;;;;;4996543;28;20046;-59
2022/04/25 00:08:21;;;;;;;14.13;7.60;;;9.50;99.90;;;;;;4998171;28;20096;-59
2022/04/25 00:10:47;;;;;;;11.88;7.15;;;9.40;99.90;;;;;;4999112;28;20042;-58
2022/04/25 00:13:14;;;;;;;12.43;7.63;;;9.40;99.90;;;;;;4997406;28;20038;-59
2022/04/25 00:15:41;;;;;;;13.40;7.38;;;9.40;99.90;;;;;;4979534;28;20129;-59
2022/04/25 00:18:07;;;;;;;16.23;6.63;;;9.40;99.90;;;;;;4999861;28;20382;-59
2022/04/25 00:20:33;;;;;;;21.17;7.60;;;9.40;99.90;;;;;;4999729;28;20042;-59
2022/04/25 00:23:04;;;;;;;14.65;7.00;;;9.40;99.90;;;;;;4982361;28;20080;-59
2022/04/25 00:25:35;;;;;;;12.85;6.55;;;9.40;99.90;;;;;;5000002;28;20053;-58
2022/04/25 00:28:02;;;;;;;12.75;6.15;;;9.40;99.90;;;;;;4995782;28;20042;-58
2022/04/25 00:30:28;;;;;;;13.38;6.95;;;9.40;99.90;;;;;;4997644;28;20493;-59
2022/04/25 00:32:55;;;;;;;13.10;6.40;;;9.30;99.90;;;;;;5012219;28;20184;-57
2022/04/25 00:35:22;;;;;;;10.07;6.28;;;9.30;99.90;;;;;;5000419;28;20041;-57
2022/04/25 00:37:48;;;;;;;12.10;6.30;;;9.30;99.90;;;;;;4976311;28;20054;-58
2022/04/25 00:40:15;;;;;;;11.95;6.20;;;9.30;99.90;;;;;;5010741;28;20053;-58
2022/04/25 00:42:41;;;;;;;11.50;6.70;;;9.30;99.90;;;;;;5003080;28;20054;-59
2022/04/25 00:45:09;;;;;;;11.23;6.50;;;9.30;99.90;;;;;;4999564;28;20038;-59
2022/04/25 00:47:36;;;;;;;12.40;5.68;;;9.30;99.90;;;;;;4995081;28;20038;-59
2022/04/25 00:50:02;;;;;;;19.27;6.30;;;9.30;99.90;;;;;;5004625;28;20054;-59
2022/04/25 00:52:28;;;;;;;15.75;6.22;;;9.30;99.90;;;;;;4992187;28;20405;-59
2022/04/25 00:54:53;;;;;;;12.90;5.72;;;9.30;99.90;;;;;;5002797;28;20049;-59
2022/04/25 00:57:20;;;;;;;11.70;6.45;;;9.30;99.90;;;;;;4996511;28;20130;-59
2022/04/25 00:59:47;;;;;;;12.45;6.78;;;9.30;99.90;;;;;;5002805;28;20042;-58
2022/04/25 01:02:13;;;;;;;10.55;6.10;;;9.20;99.90;;;;;;5010012;28;20161;-60
2022/04/25 01:04:39;;;;;;;12.05;6.38;;;9.20;99.90;;;;;;4985603;28;20048;-59
2022/04/25 01:07:05;;;;;;;13.10;6.72;;;9.30;99.90;;;;;;5003859;28;20452;-59
2022/04/25 01:09:30;;;;;;;13.15;6.65;;;9.30;99.90;;;;;;5001127;28;20125;-59
2022/04/25 01:11:58;;;;;;;12.20;7.07;;;9.20;99.90;;;;;;4989065;28;20125;-59
2022/04/25 01:14:25;;;;;;;11.98;6.40;;;9.20;99.90;;;;;;4974659;28;20044;-60
2022/04/25 01:16:51;;;;;;;11.90;6.78;;;9.10;99.90;;;;;;5001878;28;20037;-60
2022/04/25 01:19:17;;;;;;;14.35;7.85;;;9.10;99.90;;;;;;4983195;28;20408;-60
2022/04/25 01:21:59;;;;;;;14.00;7.60;;;9.10;99.90;;;;;;4987392;28;20374;-60
2022/04/25 01:27:16;;;;;;;11.68;7.78;;;9.10;99.90;;;;;;4996953;28;20042;-60
2022/04/25 01:29:43;;;;;;;12.68;7.78;;;9.10;99.90;;;;;;4981177;28;20136;-59
2022/04/25 01:32:09;;;;;;;17.23;9.40;;;9.10;99.90;;;;;;5001777;28;20120;-60
2022/04/25 01:34:37;;;;;;;11.88;7.70;;;9.10;99.90;;;;;;4982352;28;20124;-59
2022/04/25 01:37:07;;;;;;;11.75;6.88;;;9.10;99.90;;;;;;4994976;28;20046;-60
2022/04/25 01:39:35;;;;;;;13.73;7.35;;;9.10;99.90;;;;;;4994360;28;20073;-60
2022/04/25 01:42:01;;;;;;;10.15;6.85;;;9.20;99.90;;;;;;4983581;28;20507;-60
2022/04/25 01:44:26;;;;;;;15.02;7.18;;;9.20;99.90;;;;;;4964897;28;20675;-59
2022/04/25 01:46:52;;;;;;;11.90;6.57;;;9.10;99.90;;;;;;4999057;28;20046;-59
2022/04/25 01:49:18;;;;;;;13.63;7.88;;;9.10;99.90;;;;;;4992443;28;20054;-59
2022/04/25 01:51:43;;;;;;;11.90;7.30;;;9.10;99.90;;;;;;4996657;28;20077;-59
2022/04/25 01:54:09;;;;;;;11.95;8.10;;;9.10;99.90;;;;;;4991618;28;20037;-61
2022/04/25 01:56:35;;;;;;;12.38;7.45;;;9.10;99.90;;;;;;4995248;28;20083;-59
2022/04/25 01:59:01;;;;;;;12.77;6.95;;;9.10;99.90;;;;;;5000918;28;20513;-60
2022/04/25 02:01:26;;;;;;;12.70;7.00;;;9.10;99.90;;;;;;4988008;28;20124;-60
2022/04/25 02:03:52;;;;;;;11.00;6.65;;;9.10;99.90;;;;;;4982817;28;20459;-60
2022/04/25 02:06:18;;;;;;;12.50;6.75;;;9.10;99.90;;;;;;4998887;28;20061;-59
2022/04/25 02:08:44;;;;;;;11.35;7.30;;;9.00;99.90;;;;;;4995927;28;20471;-61
2022/04/25 02:11:19;;;;;;;11.10;7.03;;;9.00;99.90;;;;;;4996132;28;20056;-60
2022/04/25 02:13:45;;;;;;;13.73;7.88;;;8.90;99.90;;;;;;4980366;28;20034;-58
2022/04/25 02:16:11;;;;;;;13.77;7.32;;;8.90;99.90;;;;;;4999897;28;20030;-59
2022/04/25 02:18:39;;;;;;;11.90;7.78;;;8.90;99.90;;;;;;5001843;28;20058;-60
2022/04/25 02:21:05;;;;;;;13.93;7.90;;;8.80;99.90;;;;;;5001286;28;20117;-59
2022/04/25 02:23:31;;;;;;;15.52;8.00;;;8.80;99.90;;;;;;5002054;28;20565;-60
2022/04/25 02:25:57;;;;;;;11.68;7.55;;;8.80;99.90;;;;;;4999695;28;20095;-60
2022/04/25 02:28:23;;;;;;;13.40;8.13;;;8.80;99.90;;;;;;4987424;28;20073;-59
2022/04/25 02:30:51;;;;;;;14.43;7.30;;;8.70;99.90;;;;;;4997791;28;20502;-60
2022/04/25 02:33:20;;;;;;;13.70;7.30;;;8.70;99.90;;;;;;4984814;28;20148;-58
2022/04/25 02:35:46;;;;;;;13.93;7.25;;;8.70;99.90;;;;;;4981504;28;20045;-59
2022/04/25 02:38:12;;;;;;;15.32;7.70;;;8.70;99.90;;;;;;5003176;28;20057;-60
2022/04/25 02:40:38;;;;;;;13.20;7.40;;;8.70;99.90;;;;;;4997868;28;20444;-60
2022/04/25 02:43:03;;;;;;;11.52;7.75;;;8.60;99.90;;;;;;4985246;28;20091;-60
2022/04/25 02:45:29;;;;;;;12.23;7.88;;;8.60;99.90;;;;;;4985612;28;20042;-60
2022/04/25 02:47:55;;;;;;;12.02;7.35;;;8.60;99.90;;;;;;4986597;28;20052;-60
2022/04/25 02:50:21;;;;;;;14.55;7.50;;;8.60;99.90;;;;;;4997585;28;20045;-60
2022/04/25 02:52:46;;;;;;;10.23;7.05;;;8.50;99.90;;;;;;4999690;28;20050;-60
2022/04/25 02:55:12;;;;;;;12.93;7.28;;;8.40;99.90;;;;;;5004717;28;20485;-60
2022/04/25 02:57:38;;;;;;;11.90;6.75;;;8.40;99.90;;;;;;5002745;28;20030;-60
2022/04/25 03:00:05;;;;;;;11.43;7.53;;;8.40;99.90;;;;;;4972780;28;20042;-58
2022/04/25 03:02:31;;;;;;;10.20;6.25;;;8.30;99.90;;;;;;4982779;28;20054;-58
2022/04/25 03:04:57;;;;;;;15.60;7.15;;;8.30;99.90;;;;;;4995763;28;20207;-60
2022/04/25 03:07:23;;;;;;;9.65;6.72;;;8.30;99.90;;;;;;4997674;28;20046;-60
2022/04/25 03:09:49;;;;;;;13.35;7.95;;;8.30;99.90;;;;;;4995991;28;20103;-60
2022/04/25 03:12:18;;;;;;;11.25;7.45;;;8.20;99.90;;;;;;4981080;28;20389;-60
2022/04/25 03:14:45;;;;;;;12.75;7.00;;;8.20;99.90;;;;;;4994831;28;20075;-60
2022/04/25 03:17:11;;;;;;;12.57;7.18;;;8.20;99.90;;;;;;4997922;28;20056;-59
2022/04/25 03:19:37;;;;;;;12.48;6.93;;;8.20;99.90;;;;;;4984836;28;20145;-60
2022/04/25 03:22:04;;;;;;;14.90;7.97;;;8.20;99.90;;;;;;4985409;28;20052;-60
2022/04/25 03:24:30;;;;;;;13.30;6.97;;;8.20;99.90;;;;;;4985566;28;20093;-60
2022/04/25 03:26:57;;;;;;;10.77;7.20;;;8.20;99.90;;;;;;4997623;28;20100;-60
2022/04/25 03:29:22;;;;;;;13.88;7.28;;;8.20;99.90;;;;;;4980909;28;20050;-60
2022/04/25 03:31:48;;;;;;;11.65;7.40;;;8.20;99.90;;;;;;4990780;28;20093;-60
2022/04/25 03:34:14;;;;;;;11.85;6.97;;;8.20;99.90;;;;;;4999992;28;20508;-60
2022/04/25 03:36:44;;;;;;;14.00;7.97;;;8.20;99.90;;;;;;4994143;28;20835;-60
2022/04/25 03:39:10;;;;;;;15.00;6.97;;;8.20;99.90;;;;;;4984269;28;20061;-60
2022/04/25 03:41:36;;;;;;;13.25;6.80;;;8.20;99.90;;;;;;4977102;28;20128;-59
2022/04/25 03:44:03;;;;;;;13.02;7.30;;;8.10;99.90;;;;;;4999280;28;20037;-59
2022/04/25 03:46:30;;;;;;;11.63;7.50;;;8.20;99.90;;;;;;4985136;28;20041;-59
2022/04/25 03:48:56;;;;;;;10.85;7.32;;;8.20;99.90;;;;;;4987230;28;20033;-59
2022/04/25 03:51:22;;;;;;;12.82;6.93;;;8.10;99.90;;;;;;5000520;28;20111;-60
2022/04/25 03:53:48;;;;;;;12.02;7.50;;;8.10;99.90;;;;;;4999067;28;20038;-60
2022/04/25 03:58:59;;;;;;;13.20;6.88;;;8.20;99.90;;;;;;5011741;28;20133;-59
2022/04/25 04:01:25;;;;;;;15.50;8.50;;;8.30;99.90;;;;;;4999609;28;20050;-59
2022/04/25 04:03:51;;;;;;;13.25;7.80;;;8.30;99.90;;;;;;4992867;28;20114;-59
2022/04/25 04:06:17;;;;;;;15.25;8.43;;;8.30;99.90;;;;;;4971254;28;20041;-60
2022/04/25 04:08:43;;;;;;;13.60;8.60;;;8.40;99.90;;;;;;4975011;28;20048;-59
2022/04/25 04:11:09;;;;;;;13.90;7.97;;;8.40;99.90;;;;;;4981610;28;20053;-60
2022/04/25 04:13:35;;;;;;;13.80;8.10;;;8.40;99.90;;;;;;4994327;28;20073;-59
2022/04/25 04:16:01;;;;;;;14.43;8.73;;;8.40;99.90;;;;;;4995686;28;20054;-59
2022/04/25 04:18:28;;;;;;;17.90;8.80;;;8.40;99.90;;;;;;4998353;28;20081;-58
2022/04/25 04:20:54;;;;;;;13.93;8.10;;;8.50;99.90;;;;;;4994535;28;20105;-56
2022/04/25 04:23:19;;;;;;;12.35;7.78;;;8.40;99.90;;;;;;4980853;28;20404;-58
2022/04/25 04:25:45;;;;;;;12.88;7.90;;;8.50;99.90;;;;;;4998964;28;20037;-58
2022/04/25 04:28:11;;;;;;;13.35;7.80;;;8.40;99.90;;;;;;5002477;28;20040;-58
2022/04/25 04:30:37;;;;;;;15.40;7.90;;;8.50;99.90;;;;;;5005524;28;20528;-57
2022/04/25 04:33:05;;;;;;;13.20;8.07;;;8.50;99.90;;;;;;4980784;28;20045;-58
2022/04/25 04:38:15;;;;;;;;;;;8.50;99.90;;;;;;5002787;28;20053;-58
2022/04/25 04:40:41;;;;;;;13.35;7.85;;;8.50;99.90;;;;;;5003571;28;19927;-58
2022/04/25 04:43:06;;;;;;;12.50;7.60;;;8.50;99.90;;;;;;4981713;28;20049;-59
2022/04/25 04:45:33;;;;;;;11.07;7.45;;;8.50;99.90;;;;;;4979714;28;20056;-59
2022/04/25 04:47:59;;;;;;;9.55;6.60;;;8.50;99.90;;;;;;4982916;28;20042;-59
2022/04/25 04:50:25;;;;;;;13.88;8.05;;;8.50;99.90;;;;;;4980110;28;20125;-58
2022/04/25 04:52:57;;;;;;;13.80;7.63;;;8.50;99.90;;;;;;4993573;28;20053;-58
2022/04/25 04:55:23;;;;;;;15.75;8.05;;;8.50;99.90;;;;;;4998501;28;20113;-56
2022/04/25 04:57:49;;;;;;;14.00;8.13;;;8.60;99.90;;;;;;5003491;28;20046;-55
2022/04/25 05:00:16;;;;;;;13.65;7.82;;;8.60;99.90;;;;;;4996268;28;20057;-57
2022/04/25 05:02:43;;;;;;;14.63;8.50;;;8.60;99.90;;;;;;5000267;28;20125;-59
2022/04/25 05:05:10;;;;;;;13.02;7.97;;;8.40;99.90;;;;;;4994615;28;20054;-59
2022/04/25 05:07:35;;;;;;;12.30;8.07;;;8.50;99.90;;;;;;4982722;28;20038;-58
2022/04/25 05:10:06;;;;;;;15.15;8.25;;;8.50;99.90;;;;;;4997882;28;20270;-59
2022/04/25 05:12:54;;;;;;;13.05;8.65;;;8.50;99.90;;;;;;5006744;28;20042;-59
2022/04/25 05:15:20;;;;;;;15.60;8.48;;;8.50;99.90;;;;;;5004886;28;20092;-57
2022/04/25 05:17:52;;;;;;;13.70;7.82;;;8.50;99.90;;;;;;4997360;28;20134;-59
2022/04/25 05:20:19;;;;;;;11.73;7.75;;;8.50;99.90;;;;;;4995540;28;20447;-59
2022/04/25 05:22:47;;;;;;;14.77;8.23;;;8.50;99.90;;;;;;4984623;28;20050;-60
2022/04/25 05:25:14;;;;;;;15.07;8.43;;;8.50;99.90;;;;;;5000370;28;20048;-58
2022/04/25 05:27:45;;;;;;;18.35;8.57;;;8.50;99.90;;;;;;4971235;28;20098;-59
2022/04/25 05:30:12;;;;;;;15.25;8.68;;;8.60;99.90;;;;;;5002750;28;20081;-59
2022/04/25 05:32:41;;;;;;;14.05;8.23;;;8.60;99.90;;;;;;4997935;28;20320;-59
2022/04/25 05:35:08;;;;;;;12.93;8.82;;;8.60;99.90;;;;;;5008424;28;20045;-59
2022/04/25 05:37:33;;;;;;;12.88;9.45;;;8.60;99.90;;;;;;5001710;28;20044;-59
2022/04/25 05:39:59;;;;;;;13.10;8.25;;;8.60;99.90;;;;;;4999008;28;20042;-59
2022/04/25 05:42:25;;;;;;;13.70;8.23;;;8.50;99.90;;;;;;4995746;28;20060;-61
2022/04/25 05:44:50;;;;;;;11.60;7.93;;;8.50;99.90;;;;;;4986322;28;20128;-59
2022/04/25 05:47:16;;;;;;;14.25;8.18;;;8.50;99.90;;;;;;4982646;28;20045;-59
2022/04/25 05:52:26;;;;;;;13.02;7.82;;;8.60;99.90;;;;;;5003519;28;20034;-59
2022/04/25 05:54:52;;;;;;;14.43;8.55;;;8.60;99.90;;;;;;4998895;28;20052;-59
2022/04/25 05:57:18;;;;;;;12.38;7.65;;;8.60;99.90;;;;;;4994466;28;20054;-58
2022/04/25 05:59:44;;;;;;;13.80;8.10;;;8.60;99.90;;;;;;4978584;28;20552;-58
2022/04/25 06:02:09;;;;;;;14.52;8.23;;;8.70;99.90;;;;;;5007784;28;20489;-58
2022/04/25 06:04:35;;;;;;;14.55;7.78;;;8.70;99.90;;;;;;4994405;28;20533;-58
2022/04/25 06:07:04;;;;;;;13.38;8.18;;;8.70;99.90;;;;;;4991408;23;20039;-58
2022/04/25 06:09:29;;;;;;;16.67;9.65;;;8.70;99.90;;;;;;4929024;28;20050;-59
2022/04/25 06:11:55;;;;;;;12.07;7.70;;;8.70;99.90;;;;;;4967856;28;20046;-56
2022/04/25 06:14:24;;;;;;;12.98;7.80;;;8.70;99.90;;;;;;4980215;28;20038;-58
2022/04/25 06:16:49;;;;;;;11.38;7.78;;;8.70;99.90;;;;;;4968811;28;20046;-55
2022/04/25 06:19:15;;;;;;;13.65;7.80;;;8.70;99.90;;;;;;4979965;28;20425;-54
2022/04/25 06:21:41;;;;;;;13.05;8.55;;;8.70;99.90;;;;;;4982894;28;20061;-59
2022/04/25 06:24:07;;;;;;;13.02;8.68;;;8.80;99.90;;;;;;4944041;28;20078;-59
2022/04/25 06:26:34;;;;;;;13.43;8.02;;;8.80;99.90;;;;;;4982649;28;20073;-58
2022/04/25 06:29:00;;;;;;;16.58;8.68;;;8.80;99.90;;;;;;4981596;28;20050;-58
2022/04/25 06:31:26;;;;;;;16.80;8.95;;;8.70;99.90;;;;;;4968482;28;20078;-58
2022/04/25 06:33:51;;;;;;;10.13;7.50;;;8.70;99.90;;;;;;4979390;28;20068;-54
2022/04/25 06:36:18;;;;;;;13.68;8.57;;;8.70;99.90;;;;;;4951498;28;20176;-55
2022/04/25 06:38:44;;;;;;;13.18;7.13;;;8.70;99.90;;;;;;4948548;28;20049;-57
2022/04/25 06:41:10;;;;;;;14.48;7.93;;;8.70;99.90;;;;;;4979999;28;20057;-56
2022/04/25 06:43:36;;;;;;;15.38;6.90;;;8.70;99.90;;;;;;4978173;28;20046;-59
2022/04/25 06:46:02;;;;;;;12.52;7.40;;;8.80;99.90;;;;;;4965583;28;20129;-58
2022/04/25 06:48:28;;;;;;;12.45;8.77;;;8.80;99.90;;;;;;4976654;28;20101;-59
2022/04/25 06:50:55;;;;;;;13.43;7.57;;;8.80;99.90;;;;;;4962177;28;21021;-56
2022/04/25 06:53:22;;;;;;;12.98;6.88;;;8.90;99.90;;;;;;4961012;28;20073;-59
2022/04/25 06:55:47;;;;;;;13.30;8.23;;;9.00;99.90;;;;;;4977869;28;20053;-57
2022/04/25 06:58:13;;;;;;;12.55;7.60;;;9.10;99.90;;;;;;4983655;28;20050;-57
2022/04/25 07:00:39;;;;;;;14.23;7.97;;;9.20;99.90;;;;;;4965872;28;20144;-58
2022/04/25 07:03:05;;;;;;;12.10;7.97;;;9.30;99.90;;;;;;4976015;28;20048;-56
2022/04/25 07:05:31;;;;;;;10.45;6.90;;;9.30;99.90;;;;;;4981022;28;20042;-56
2022/04/25 07:07:57;;;;;;;14.02;7.75;;;9.20;99.90;;;;;;4949845;28;20053;-58
2022/04/25 07:10:23;;;;;;;11.90;7.60;;;9.20;99.90;;;;;;4985455;28;20421;-60
2022/04/25 07:12:49;;;;;;;16.83;8.02;;;9.20;99.90;;;;;;4977192;28;20034;-58
2022/04/25 07:15:14;;;;;;;16.63;8.60;;;9.20;99.90;;;;;;4963274;28;20691;-55
2022/04/25 07:17:40;;;;;;;14.75;8.50;;;9.20;99.90;;;;;;4981238;28;20555;-58
2022/04/25 07:20:07;;;;;;;14.77;8.15;;;9.20;99.90;;;;;;4980728;28;20038;-57
2022/04/25 07:30:45;;;;;;;10.75;6.88;;;9.30;99.90;;;;;;4990089;28;20568;-55
2022/04/25 07:33:11;;;;;;;12.73;7.68;;;9.30;99.90;;;;;;4973454;28;20038;-59
2022/04/25 07:35:39;;;;;;;12.70;6.60;;;9.30;99.90;;;;;;4973522;28;20027;-54
2022/04/25 07:38:05;;;;;;;17.00;7.70;;;9.30;99.90;;;;;;4957815;28;20054;-57
2022/04/25 07:40:31;;;;;;;12.95;7.72;;;9.40;99.90;;;;;;4959784;28;20039;-59
2022/04/25 07:42:58;;;;;;;12.50;7.28;;;9.40;99.90;;;;;;4966584;28;20473;-59
2022/04/25 07:45:24;;;;;;;12.27;7.30;;;9.50;99.90;;;;;;4948176;28;20057;-59
2022/04/25 07:47:50;;;;;;;15.63;7.57;;;9.50;99.90;;;;;;4962582;28;20042;-57
2022/04/25 07:50:23;;;;;;;13.45;6.78;;;9.50;99.90;;;;;;4982067;28;20401;-57
2022/04/25 07:52:50;;;;;;;10.65;6.65;;;9.40;99.90;;;;;;4977670;28;20524;-58
2022/04/25 07:55:16;;;;;;;13.18;6.97;;;9.40;99.90;;;;;;4979758;28;20088;-58
2022/04/25 07:57:42;;;;;;;12.35;6.78;;;9.60;99.90;;;;;;4942958;28;20043;-59
2022/04/25 08:00:08;;;;;;;10.90;7.15;;;9.70;99.90;;;;;;4966684;28;20054;-56
2022/04/25 08:02:34;;;;;;;15.30;8.70;;;9.80;99.90;;;;;;4977034;28;20034;-58
2022/04/25 08:05:00;;;;;;;13.02;7.50;;;9.90;99.90;;;;;;4988913;28;20874;-58
2022/04/25 08:07:26;;;;;;;10.15;7.05;;;9.80;99.90;;;;;;4969625;28;20046;-57
2022/04/25 08:09:53;;;;;;;12.18;7.75;;;9.90;99.90;;;;;;4984391;28;21804;-57
2022/04/25 08:17:59;;;;;;;13.80;6.95;;;9.90;99.90;;;;;;5016549;23;20068;-60
2022/04/25 08:20:28;;;;;;;10.25;6.57;;;9.90;99.90;;;;;;5025700;28;20103;-59
2022/04/25 08:22:55;;;;;;;9.45;6.30;;;9.90;99.90;;;;;;4992533;28;20033;-57
2022/04/25 08:25:20;;;;;;;10.02;6.50;;;9.90;99.90;;;;;;4998761;28;20043;-59
2022/04/25 08:27:46;;;;;;;9.65;6.55;;;9.90;99.90;;;;;;5021004;28;20037;-60
2022/04/25 08:30:12;;;;;;;11.05;6.57;;;10.00;99.90;;;;;;5010557;28;20127;-61
2022/04/25 08:32:38;;;;;;;10.10;6.15;;;9.80;99.90;;;;;;5019147;28;20440;-60
2022/04/25 08:35:04;;;;;;;8.32;5.38;;;9.90;99.90;;;;;;5007829;28;20072;-59
2022/04/25 08:37:30;;;;;;;9.35;5.88;;;10.00;99.90;;;;;;5002053;28;20051;-59
2022/04/25 08:39:56;;;;;;;15.05;5.90;;;10.00;99.90;;;;;;5024050;28;20045;-59
2022/04/25 08:42:22;;;;;;;10.15;5.78;;;10.10;99.90;;;;;;5009885;28;20075;-59
2022/04/25 08:44:52;;;;;;;9.65;5.07;;;10.10;99.90;;;;;;5010154;28;20438;-57
2022/04/25 08:47:18;;;;;;;11.23;5.47;;;10.20;99.90;;;;;;5021605;28;20172;-59
2022/04/25 08:49:44;;;;;;;12.60;6.53;;;10.20;99.90;;;;;;5017143;28;20100;-59
2022/04/25 08:52:10;;;;;;;16.13;7.45;;;10.20;99.90;;;;;;5021782;28;20037;-59
2022/04/25 08:54:37;;;;;;;10.00;5.22;;;10.40;99.90;;;;;;5024421;28;20041;-58
2022/04/25 08:57:05;;;;;;;9.88;6.18;;;10.50;99.90;;;;;;5020351;28;20037;-59
2022/04/25 08:59:32;;;;;;;8.68;6.20;;;10.60;99.90;;;;;;5019757;28;20112;-61
2022/04/25 09:01:58;;;;;;;9.70;5.47;;;10.70;99.90;;;;;;5023761;28;20054;-60
2022/04/25 09:04:24;;;;;;;7.15;4.88;;;10.80;99.90;;;;;;5015422;28;21322;-57
2022/04/25 09:06:51;;;;;;;11.38;5.45;;;10.80;99.90;;;;;;5003031;28;20056;-55
2022/04/25 09:09:18;;;;;;;6.60;4.93;;;10.90;99.90;;;;;;5007117;28;20095;-56
2022/04/25 09:14:29;;;;;;;8.85;5.20;;;10.70;99.90;;;;;;5001167;28;20372;-57
2022/04/25 09:16:56;;;;;;;9.48;5.68;;;10.60;99.90;;;;;;5020797;28;20120;-57
2022/04/25 09:19:22;;;;;;;11.18;5.65;;;10.70;99.90;;;;;;5020758;28;20041;-54
2022/04/25 09:21:48;;;;;;;10.73;5.18;;;10.70;99.90;;;;;;5023909;28;20053;-55
2022/04/25 09:24:25;;;;;;;7.50;5.35;;;10.70;99.90;;;;;;4999263;28;20065;-53
2022/04/25 09:27:09;;;;;;;8.77;5.60;;;10.80;99.90;;;;;;5023142;28;20037;-54
2022/04/25 09:29:39;;;;;;;10.93;5.90;;;10.90;99.90;;;;;;5018318;28;20091;-54
2022/04/25 09:32:06;;;;;;;6.97;4.68;;;10.90;99.90;;;;;;5019904;28;20045;-58
2022/04/25 09:37:17;;;;;;;10.10;4.72;;;11.10;99.90;;;;;;5021509;28;20381;-55
2022/04/25 09:39:44;;;;;;;7.40;5.07;;;11.20;99.90;;;;;;5025291;28;20138;-58
2022/04/25 09:42:11;;;;;;;9.82;4.70;;;11.30;99.90;;;;;;5009505;28;20048;-58
2022/04/25 09:44:57;;;;;;;9.77;5.00;;;11.30;99.90;;;;;;4999417;28;20385;-59
2022/04/25 09:47:29;;;;;;;8.13;5.00;;;11.30;99.90;;;;;;5014585;28;20045;-58
2022/04/25 09:50:27;;;;;;;8.52;5.28;;;11.30;99.90;;;;;;5018314;28;20037;-58
2022/04/25 09:52:59;;;;;;;8.85;4.47;;;11.30;99.90;;;;;;5011719;28;20543;-58
2022/04/25 09:55:29;;;;;;;8.93;5.15;;;11.30;99.90;;;;;;5026597;28;20068;-58
2022/04/25 09:57:56;;;;;;;8.50;5.05;;;11.30;99.90;;;;;;5012946;28;20046;-57
2022/04/25 10:00:28;;;;;;;9.07;5.00;;;11.20;99.90;;;;;;4987282;28;20050;-59
2022/04/25 10:02:54;;;;;;;8.57;4.78;;;11.20;99.90;;;;;;5015679;28;20124;-60
2022/04/25 10:05:20;;;;;;;10.52;5.10;;;11.20;99.90;;;;;;5021040;28;20100;-58
2022/04/25 10:07:46;;;;;;;8.20;5.13;;;11.30;99.90;;;;;;5022971;28;20484;-57
2022/04/25 10:10:13;;;;;;;11.18;4.70;;;11.20;99.90;;;;;;5016636;28;20077;-58
2022/04/25 10:12:39;;;;;;;8.48;4.30;;;11.30;99.90;;;;;;5022913;28;20038;-60
2022/04/25 10:15:06;;;;;;;8.27;4.20;;;11.30;99.90;;;;;;4984946;28;20396;-60
2022/04/25 10:17:35;;;;;;;5.43;3.55;;;11.40;99.90;;;;;;5017590;28;20120;-60
2022/04/25 10:20:02;;;;;;;8.35;4.32;;;11.30;99.90;;;;;;4998630;28;20426;-58
2022/04/25 10:22:28;;;;;;;11.27;3.97;;;11.30;99.90;;;;;;5013210;28;20099;-59
2022/04/25 10:24:54;;;;;;;6.75;3.50;;;11.40;99.90;;;;;;4995748;28;20747;-58
2022/04/25 10:27:27;;;;;;;8.10;3.92;;;11.30;99.90;;;;;;5017285;28;20549;-56
2022/04/25 10:29:58;;;;;;;7.23;4.10;;;11.30;99.90;;;;;;5004825;28;20046;-58
2022/04/25 10:32:25;;;;;;;8.75;4.00;;;11.40;99.90;;;;;;5005588;28;20104;-57
2022/04/25 10:35:04;;;;;;;6.85;3.47;;;11.50;99.90;;;;;;5020844;28;20483;-57
2022/04/25 10:37:39;;;;;;;6.03;3.53;;;11.60;99.90;;;;;;5007771;28;20072;-59
2022/04/25 10:40:12;;;;;;;7.45;3.70;;;11.70;99.90;;;;;;5016763;28;20041;-59
2022/04/25 10:46:01;;;;;;;9.27;4.07;;;11.90;99.90;;;;;;5012764;28;20045;-59
2022/04/25 10:48:28;;;;;;;8.73;3.85;;;12.00;99.90;;;;;;5014141;28;20029;-60
2022/04/25 10:51:12;;;;;;;9.68;4.28;;;12.10;99.90;;;;;;5019135;28;20057;-58
2022/04/25 10:53:57;;;;;;;10.13;4.78;;;12.10;99.90;;;;;;5023706;28;20117;-59
2022/04/25 10:56:23;;;;;;;8.73;3.97;;;12.30;99.90;;;;;;5017285;28;20058;-58
2022/04/25 10:59:22;;;;;;;7.57;4.40;;;12.40;99.90;;;;;;5002173;28;20103;-56
2022/04/25 11:01:49;;;;;;;11.50;4.18;;;12.60;99.20;;;;;;4993328;28;20040;-57
2022/04/25 11:04:15;;;;;;;8.32;4.15;;;12.60;99.00;;;;;;5012586;28;20045;-56
2022/04/25 11:06:44;;;;;;;8.60;3.85;;;12.60;98.90;;;;;;4992307;28;20077;-57
2022/04/25 11:09:10;;;;;;;8.27;4.00;;;12.60;98.90;;;;;;4978849;28;20034;-62
2022/04/25 11:11:51;;;;;;;5.85;3.83;;;12.60;98.60;;;;;;5013001;28;20052;-58
2022/04/25 11:14:18;;;;;;;6.03;3.75;;;12.70;98.70;;;;;;5020160;28;20086;-59
2022/04/25 11:17:08;;;;;;;12.30;4.03;;;12.80;99.00;;;;;;4987049;28;20041;-57
2022/04/25 11:19:46;;;;;;;10.75;4.72;;;12.90;98.60;;;;;;5003999;28;20072;-59
2022/04/25 11:22:28;;;;;;;8.63;3.75;;;13.10;98.50;;;;;;5004620;28;20037;-60
2022/04/25 11:24:54;;;;;;;8.30;3.60;;;13.20;98.20;;;;;;5003622;28;20037;-60
2022/04/25 11:27:21;;;;;;;9.02;4.15;;;13.50;98.10;;;;;;5017860;28;20072;-59
2022/04/25 11:30:17;;;;;;;6.68;3.97;;;13.70;97.80;;;;;;5015014;28;20046;-59
2022/04/25 11:32:44;;;;;;;8.63;3.65;;;13.80;96.80;;;;;;5004546;28;20084;-59
2022/04/25 11:35:11;;;;;;;6.75;3.28;;;13.80;96.30;;;;;;5026495;28;20033;-59
2022/04/25 11:37:36;;;;;;;9.43;3.92;;;13.70;96.50;;;;;;5029050;28;20128;-58
2022/04/25 11:40:07;;;;;;;15.73;5.10;;;13.80;96.30;;;;;;5022630;28;20552;-58
2022/04/25 11:42:35;;;;;;;7.47;3.47;;;13.60;95.50;;;;;;5028707;28;20051;-58
2022/04/25 11:45:01;;;;;;;10.73;4.40;;;13.60;96.60;;;;;;5031684;28;20097;-58
2022/04/25 11:47:32;;;;;;;10.77;4.15;;;13.50;96.90;;;;;;5032178;28;20046;-61
2022/04/25 11:50:07;;;;;;;12.38;5.97;;;13.50;97.10;;;;;;5031723;28;20046;-57
2022/04/25 11:52:33;;;;;;;12.13;5.68;;;13.50;97.50;;;;;;5032644;28;20069;-59
2022/04/25 11:54:59;;;;;;;8.65;4.18;;;13.40;97.80;;;;;;5014965;28;20135;-59
2022/04/25 11:57:26;;;;;;;10.32;4.80;;;13.50;97.70;;;;;;5030545;28;20053;-59
2022/04/25 12:00:12;;;;;;;9.55;4.95;;;13.40;97.30;;;;;;5014227;28;20049;-61
2022/04/25 12:02:38;;;;;;;12.15;4.70;;;13.40;97.60;;;;;;5026928;28;20125;-58
2022/04/25 12:05:07;;;;;;;8.43;3.88;;;13.40;97.50;;;;;;5032442;28;20041;-59
2022/04/25 12:07:35;;;;;;;8.80;4.40;;;13.40;97.60;;;;;;5029797;28;20080;-58
2022/04/25 12:18:22;;;;;;;8.13;4.23;;;13.30;97.60;;;;;;5030008;28;20076;-58
2022/04/25 12:20:58;;;;;;;8.63;3.67;;;13.20;96.40;;;;;;5014126;28;20045;-57
2022/04/25 12:23:26;;;;;;;12.82;5.20;;;13.20;96.40;;;;;;5011438;28;20041;-60
2022/04/25 12:25:53;;;;;;;6.55;3.95;;;13.20;96.50;;;;;;5012857;28;20053;-59
2022/04/25 12:28:22;;;;;;;9.57;4.00;;;13.20;96.50;;;;;;5011169;28;20132;-58
2022/04/25 12:31:03;;;;;;;6.75;4.05;;;13.30;96.40;;;;;;5028670;28;20061;-61
2022/04/25 12:33:38;;;;;;;8.55;4.13;;;13.30;95.90;;;;;;5030923;28;20054;-59
2022/04/25 12:36:18;;;;;;;6.68;3.60;;;13.40;96.10;;;;;;5031609;28;20037;-60
2022/04/25 12:38:56;;;;;;;9.88;4.00;;;13.40;96.00;;;;;;5028518;28;20049;-60
2022/04/25 12:41:36;;;;;;;5.70;4.03;;;13.50;95.80;;;;;;5030481;28;20048;-60
2022/04/25 12:44:12;;;;;;;8.23;3.65;;;13.90;95.90;;;;;;5011019;28;20445;-61
2022/04/25 12:46:44;;;;;;;7.20;3.60;;;14.30;95.80;;;;;;5020395;28;20034;-60
2022/04/25 12:49:12;;;;;;;8.70;4.18;;;14.50;94.60;;;;;;5029851;28;20443;-60
2022/04/25 12:51:42;;;;;;;6.43;3.70;;;14.60;93.90;;;;;;5016875;28;20076;-57
2022/04/25 12:54:31;;;;;;;8.70;3.60;;;14.60;93.80;;;;;;5025408;28;20046;-61
2022/04/25 12:57:09;;;;;;;8.65;4.25;;;14.50;93.10;;;;;;5022004;28;20037;-61
2022/04/25 12:59:36;;;;;;;7.88;3.90;;;14.50;93.80;;;;;;5027449;28;20123;-60
2022/04/25 13:02:07;;;;;;;9.68;4.38;;;14.30;93.10;;;;;;5032057;28;20067;-60
2022/04/25 13:04:52;;;;;;;11.43;3.97;;;14.10;93.30;;;;;;5031170;28;20043;-62
2022/04/25 13:07:28;;;;;;;8.18;3.35;;;14.10;93.50;;;;;;5024215;28;20436;-60
2022/04/25 13:09:56;;;;;;;7.30;3.55;;;14.00;93.80;;;;;;5030827;28;20045;-59
2022/04/25 13:12:24;;;;;;;7.07;3.40;;;13.80;93.50;;;;;;5038012;28;20051;-58
2022/04/25 13:14:50;;;;;;;9.73;4.10;;;13.80;93.80;;;;;;5013879;28;20435;-58
2022/04/25 13:17:16;;;;;;;6.80;3.50;;;13.90;94.20;;;;;;5028106;28;20042;-58
2022/04/25 13:19:43;;;;;;;6.38;3.65;;;13.90;93.50;;;;;;5029842;28;20088;-58
2022/04/25 13:22:09;;;;;;;6.85;3.28;;;13.80;93.60;;;;;;5028937;28;20042;-58
2022/04/25 13:24:35;;;;;;;8.27;3.30;;;13.80;93.60;;;;;;5031442;28;20046;-56
2022/04/25 13:27:03;;;;;;;7.03;3.90;;;13.80;93.60;;;;;;5026764;28;20041;-58
2022/04/25 13:29:28;;;;;;;7.32;3.38;;;13.80;93.90;;;;;;5008375;28;20072;-61
2022/04/25 13:31:54;;;;;;;8.93;3.45;;;13.80;93.70;;;;;;5027533;28;20081;-61